Copeland, North Carolina
Current Conditions -  °F | °C
As of 1:15 PM on Thursday 18 Dec 2014 (Local Time) from KMWK Reporting Station
Overcast Overcast  
Wind Chill: 44°   Ceiling: 8000
Heat Index: 44°   Visibility: 10mi
Dew Point: 20°   Wind: 0mph
Humidity: 38%   Direction: NA
Pressure: 30.12"   Gusts: NA
Location:  36.3461°N, 80.7011°W
Report Text: KMWK 181815Z AUTO 00000KT 10SM OVC080 07/M07 A3012 RMK AO2 T00681068
Loading
Personal Weather Stations






























Interactive Weather Map New forecast layout! Learn more

10-Day Weather Forecast

Advertisements
Track Severe Weather on mobile